createdAt,value
2023-02-28T00:00:35.691Z,0.87
2023-02-28T00:01:37.883Z,0.80
2023-02-28T00:02:42.129Z,0.71
2023-02-28T00:03:44.076Z,0.76
2023-02-28T00:04:46.076Z,0.61
2023-02-28T00:05:47.985Z,0.60
2023-02-28T00:06:50.118Z,0.58
2023-02-28T00:07:52.600Z,0.76
2023-02-28T00:08:54.489Z,0.72
2023-02-28T00:09:56.499Z,0.83
2023-02-28T00:11:05.912Z,0.93
2023-02-28T00:12:11.064Z,0.80
2023-02-28T00:13:12.987Z,0.91
2023-02-28T00:14:14.827Z,0.99
2023-02-28T00:15:17.401Z,0.89
2023-02-28T00:16:22.185Z,0.93
2023-02-28T00:17:24.708Z,1.04
2023-02-28T00:18:26.591Z,1.05
2023-02-28T00:19:28.826Z,1.03
2023-02-28T00:20:30.728Z,1.04
2023-02-28T00:21:32.708Z,0.89
2023-02-28T00:22:35.292Z,0.91
2023-02-28T00:23:37.909Z,0.87
2023-02-28T00:24:39.747Z,0.78
2023-02-28T00:25:41.695Z,0.88
2023-02-28T00:26:43.661Z,0.69
2023-02-28T00:27:46.301Z,0.84
2023-02-28T00:28:49.440Z,0.77
2023-02-28T00:29:51.515Z,0.75
2023-02-28T00:30:53.695Z,0.79
2023-02-28T00:31:55.628Z,0.88
2023-02-28T00:32:57.807Z,0.85
2023-02-28T00:33:59.680Z,0.80
2023-02-28T00:35:02.297Z,0.84
2023-02-28T00:36:09.887Z,0.81
2023-02-28T00:37:13.133Z,0.75
2023-02-28T00:38:16.738Z,0.93
2023-02-28T00:39:18.646Z,0.86
2023-02-28T00:40:20.649Z,0.96
2023-02-28T00:41:22.560Z,0.96
2023-02-28T00:42:25.525Z,1.07
2023-02-28T00:43:28.262Z,1.04
2023-02-28T00:44:30.719Z,0.88
2023-02-28T00:45:32.563Z,0.83
2023-02-28T00:46:34.587Z,0.73
2023-02-28T00:47:36.985Z,0.79
2023-02-28T00:48:39.420Z,0.91
2023-02-28T00:49:41.680Z,0.95
2023-02-28T00:50:44.968Z,0.88
2023-02-28T00:51:46.923Z,0.90
2023-02-28T00:52:49.088Z,0.80
2023-02-28T00:53:51.267Z,0.72
2023-02-28T00:54:53.153Z,0.77
2023-02-28T00:55:55.154Z,0.72
2023-02-28T00:56:57.114Z,0.80
2023-02-28T00:58:00.539Z,0.93
2023-02-28T00:59:02.718Z,0.98
2023-02-28T01:00:06.053Z,1.18
2023-02-28T01:01:08.061Z,1.22
2023-02-28T01:02:09.977Z,1.24
2023-02-28T01:03:12.306Z,1.24
2023-02-28T01:04:15.554Z,1.12
2023-02-28T01:05:17.460Z,1.12
2023-02-28T01:06:20.841Z,1.03
2023-02-28T01:07:22.744Z,0.94
2023-02-28T01:08:25.115Z,0.92
2023-02-28T01:09:27.490Z,1.05
2023-02-28T01:10:32.344Z,0.98
2023-02-28T01:11:35.276Z,1.02
2023-02-28T01:12:37.147Z,0.88
2023-02-28T01:13:39.269Z,1.00
2023-02-28T01:14:41.766Z,1.08
2023-02-28T01:15:49.978Z,0.99
2023-02-28T01:16:52.713Z,0.87
2023-02-28T01:17:54.646Z,0.85
2023-02-28T01:18:57.549Z,0.98
2023-02-28T01:19:59.755Z,1.18
2023-02-28T01:21:11.353Z,1.12
2023-02-28T01:22:13.211Z,1.13
2023-02-28T01:23:17.675Z,1.24
2023-02-28T01:24:19.795Z,1.23
2023-02-28T01:25:22.113Z,1.21
2023-02-28T01:26:24.545Z,1.15
2023-02-28T01:27:27.492Z,1.24
2023-02-28T01:28:30.844Z,1.18
2023-02-28T01:29:32.692Z,1.17
2023-02-28T01:30:35.712Z,1.18
2023-02-28T01:31:37.717Z,1.24
2023-02-28T01:32:39.645Z,1.34
2023-02-28T01:33:42.173Z,1.38
2023-02-28T01:34:44.098Z,1.36
2023-02-28T01:35:46.408Z,1.29
2023-02-28T01:36:48.667Z,1.28
2023-02-28T01:37:50.566Z,1.27
2023-02-28T01:38:52.741Z,1.37
2023-02-28T01:39:56.029Z,1.28
2023-02-28T01:40:58.501Z,1.37
2023-02-28T01:42:00.376Z,1.27
2023-02-28T01:43:02.428Z,1.27
2023-02-28T01:44:08.512Z,1.24
2023-02-28T01:45:31.798Z,1.11
2023-02-28T01:46:37.207Z,1.11
2023-02-28T01:47:43.863Z,1.18
2023-02-28T01:48:53.784Z,1.31
2023-02-28T01:49:56.506Z,1.25
2023-02-28T01:51:04.338Z,1.25
2023-02-28T01:52:07.596Z,1.23
2023-02-28T01:53:16.882Z,1.21
2023-02-28T01:54:31.877Z,1.25
2023-02-28T01:55:34.765Z,1.36
2023-02-28T01:56:37.791Z,1.31
2023-02-28T01:57:46.824Z,1.22
2023-02-28T01:58:53.016Z,1.17
2023-02-28T02:00:16.280Z,1.17
2023-02-28T02:01:23.473Z,1.10
2023-02-28T02:02:26.244Z,1.06
2023-02-28T02:03:28.292Z,0.85
2023-02-28T02:04:41.878Z,0.88
2023-02-28T02:05:48.476Z,0.99
2023-02-28T02:06:50.941Z,0.96
2023-02-28T02:07:57.301Z,0.98
2023-02-28T02:08:59.236Z,0.97
2023-02-28T02:10:12.020Z,0.76
2023-02-28T02:11:18.513Z,0.60
2023-02-28T02:12:59.294Z,0.72
2023-02-28T02:14:12.477Z,0.73
2023-02-28T02:15:29.852Z,0.64
2023-02-28T02:16:52.664Z,0.88
2023-02-28T02:17:59.304Z,0.92
2023-02-28T02:19:35.326Z,0.98
2023-02-28T02:20:55.588Z,0.99
2023-02-28T02:22:27.554Z,1.01
2023-02-28T02:24:12.730Z,1.16
2023-02-28T02:25:34.072Z,1.28
2023-02-28T02:27:00.552Z,1.14
2023-02-28T02:28:29.385Z,1.06
2023-02-28T02:30:09.148Z,1.21
2023-02-28T02:31:14.147Z,1.33
2023-02-28T02:32:40.556Z,1.29
2023-02-28T02:34:20.409Z,1.37
2023-02-28T02:35:51.170Z,1.32
2023-02-28T02:37:17.970Z,1.36
2023-02-28T02:38:52.068Z,1.43
2023-02-28T02:40:09.111Z,1.44
2023-02-28T02:41:42.391Z,1.35
2023-02-28T02:42:59.806Z,1.42
2023-02-28T02:44:12.454Z,1.34
2023-02-28T02:45:24.803Z,1.26
2023-02-28T02:46:44.023Z,1.22
2023-02-28T02:47:46.638Z,1.35
2023-02-28T02:48:49.521Z,1.33
2023-02-28T02:49:55.902Z,1.26
2023-02-28T02:51:06.963Z,1.30
2023-02-28T02:52:13.402Z,1.34
2023-02-28T02:53:18.977Z,1.43
2023-02-28T02:54:30.069Z,1.47
2023-02-28T02:55:35.696Z,1.39
2023-02-28T02:56:43.331Z,1.41
2023-02-28T02:58:09.224Z,1.46
2023-02-28T02:59:14.577Z,1.45
2023-02-28T03:00:24.399Z,1.25
2023-02-28T03:01:31.187Z,1.27
2023-02-28T03:02:34.724Z,1.31
2023-02-28T03:03:36.772Z,1.34
2023-02-28T03:04:47.649Z,1.43
2023-02-28T03:05:52.029Z,1.44
2023-02-28T03:06:56.974Z,1.46
2023-02-28T03:07:58.882Z,1.49
2023-02-28T03:09:01.331Z,1.45
2023-02-28T03:10:04.363Z,1.37
2023-02-28T03:11:15.010Z,1.44
2023-02-28T03:12:17.563Z,1.49
2023-02-28T03:13:46.485Z,1.43
2023-02-28T03:15:01.951Z,1.45
2023-02-28T03:16:41.452Z,1.47
2023-02-28T03:17:56.385Z,1.44
2023-02-28T03:19:12.735Z,1.45
2023-02-28T03:20:27.960Z,1.48
2023-02-28T03:21:58.381Z,1.50
2023-02-28T03:23:30.874Z,1.56
2023-02-28T03:24:39.533Z,1.46
2023-02-28T03:26:00.203Z,1.51
2023-02-28T03:27:32.778Z,1.47
2023-02-28T03:29:11.532Z,1.57
2023-02-28T03:30:13.502Z,1.56
2023-02-28T03:31:21.880Z,1.51
2023-02-28T03:32:34.723Z,1.60
2023-02-28T03:33:55.867Z,1.67
2023-02-28T03:35:23.132Z,1.67
2023-02-28T03:36:33.286Z,1.66
2023-02-28T03:37:39.300Z,1.67
2023-02-28T03:38:54.048Z,1.61
2023-02-28T03:40:09.738Z,1.56
2023-02-28T03:41:20.211Z,1.56
2023-02-28T03:42:27.069Z,1.50
2023-02-28T03:43:35.918Z,1.49
2023-02-28T03:44:43.796Z,1.63
2023-02-28T03:45:49.456Z,1.59
2023-02-28T03:47:00.604Z,1.69
2023-02-28T03:48:10.789Z,1.68
2023-02-28T03:49:21.883Z,1.68
2023-02-28T03:50:40.417Z,1.68
2023-02-28T03:51:46.071Z,1.72
2023-02-28T03:53:02.014Z,1.64
2023-02-28T03:54:17.072Z,1.65
2023-02-28T03:55:20.132Z,1.56
2023-02-28T03:56:39.229Z,1.61
2023-02-28T03:58:02.506Z,1.64
2023-02-28T03:59:28.585Z,1.63
2023-02-28T04:00:41.399Z,1.56
2023-02-28T04:01:48.860Z,1.52
2023-02-28T04:02:53.662Z,1.53
2023-02-28T04:03:56.017Z,1.50
2023-02-28T04:04:57.940Z,1.48
2023-02-28T04:06:00.425Z,1.52
2023-02-28T04:07:06.182Z,1.46
2023-02-28T04:08:09.593Z,1.46
2023-02-28T04:09:15.717Z,1.54
2023-02-28T04:10:18.130Z,1.56
2023-02-28T04:11:39.325Z,1.68
2023-02-28T04:12:41.504Z,1.65
2023-02-28T04:13:45.573Z,1.60
2023-02-28T04:14:48.538Z,1.61
2023-02-28T04:15:50.453Z,1.48
2023-02-28T04:16:53.009Z,1.57
2023-02-28T04:17:55.193Z,1.62
2023-02-28T04:19:03.017Z,1.73
2023-02-28T04:20:10.252Z,1.76
2023-02-28T04:21:13.307Z,1.72
2023-02-28T04:22:15.245Z,1.81
2023-02-28T04:23:17.580Z,1.88
2023-02-28T04:24:22.866Z,1.70
2023-02-28T04:25:24.806Z,1.80
2023-02-28T04:26:26.713Z,1.85
2023-02-28T04:27:28.565Z,1.69
2023-02-28T04:28:30.892Z,1.67
2023-02-28T04:29:36.042Z,1.66
2023-02-28T04:30:39.386Z,1.78
2023-02-28T04:31:41.757Z,1.66
2023-02-28T04:32:43.797Z,1.61
2023-02-28T04:33:46.010Z,1.66
2023-02-28T04:34:47.852Z,1.70
2023-02-28T04:35:49.762Z,1.66
2023-02-28T04:37:10.407Z,1.78
2023-02-28T04:38:13.925Z,1.63
2023-02-28T04:39:18.182Z,1.64
2023-02-28T04:40:20.056Z,1.61
2023-02-28T04:41:22.432Z,1.46
2023-02-28T04:42:24.304Z,1.57
2023-02-28T04:43:30.595Z,1.66
2023-02-28T04:44:33.021Z,1.59
2023-02-28T04:45:36.250Z,1.76
2023-02-28T04:46:38.227Z,1.82
2023-02-28T04:47:40.137Z,1.75
2023-02-28T04:48:42.129Z,1.58
2023-02-28T04:49:44.332Z,1.63
2023-02-28T04:50:46.219Z,1.68
2023-02-28T04:51:48.373Z,1.65
2023-02-28T04:52:50.416Z,1.76
2023-02-28T04:53:53.154Z,1.80
2023-02-28T04:54:55.524Z,1.77
2023-02-28T04:55:58.436Z,1.80
2023-02-28T04:57:00.337Z,1.67
2023-02-28T04:58:02.328Z,1.63
2023-02-28T04:59:05.072Z,1.63
2023-02-28T05:00:09.558Z,1.68
2023-02-28T05:01:22.922Z,1.75
2023-02-28T05:02:24.976Z,1.83
2023-02-28T05:03:28.117Z,1.71
2023-02-28T05:04:30.024Z,1.66
2023-02-28T05:05:32.240Z,1.59
2023-02-28T05:06:34.625Z,1.77
2023-02-28T05:07:36.527Z,1.84
2023-02-28T05:08:38.613Z,1.86
2023-02-28T05:09:40.523Z,1.84
2023-02-28T05:10:42.722Z,1.51
2023-02-28T05:11:44.575Z,1.55
2023-02-28T05:12:46.680Z,1.64
2023-02-28T05:13:49.395Z,1.66
2023-02-28T05:14:51.283Z,1.95
2023-02-28T05:15:53.658Z,1.85
2023-02-28T05:16:55.739Z,1.97
2023-02-28T05:17:57.616Z,1.86
2023-02-28T05:18:59.984Z,1.82
2023-02-28T05:20:14.715Z,1.76
2023-02-28T05:21:48.972Z,1.79
2023-02-28T05:22:50.935Z,1.84
2023-02-28T05:23:53.554Z,1.86
2023-02-28T05:24:55.534Z,1.91
2023-02-28T05:25:58.015Z,2.03
2023-02-28T05:27:04.416Z,1.92
2023-02-28T05:28:06.457Z,1.83
2023-02-28T05:29:08.796Z,1.88
2023-02-28T05:30:11.821Z,1.83
2023-02-28T05:31:14.431Z,1.84
2023-02-28T05:32:16.710Z,1.93
2023-02-28T05:33:18.564Z,1.94
2023-02-28T05:34:20.875Z,1.88
2023-02-28T05:35:22.774Z,1.87
2023-02-28T05:36:24.902Z,1.74
2023-02-28T05:37:27.123Z,1.50
2023-02-28T05:38:29.105Z,1.67
2023-02-28T05:39:30.995Z,1.80
2023-02-28T05:40:32.928Z,1.85
2023-02-28T05:41:34.771Z,1.77
2023-02-28T05:42:38.371Z,1.83
2023-02-28T05:43:40.323Z,1.80
2023-02-28T05:44:43.477Z,1.93
2023-02-28T05:45:45.339Z,1.91
2023-02-28T05:46:47.257Z,1.88
2023-02-28T05:47:49.455Z,1.90
2023-02-28T05:48:51.823Z,1.84
2023-02-28T05:49:53.801Z,1.88
2023-02-28T05:50:55.698Z,1.92
2023-02-28T05:51:57.618Z,1.98
2023-02-28T05:52:59.752Z,1.83
2023-02-28T05:54:02.307Z,1.88
2023-02-28T05:55:04.761Z,1.85
2023-02-28T05:56:06.911Z,1.84
2023-02-28T05:57:18.866Z,1.88
2023-02-28T05:58:30.158Z,1.92
2023-02-28T05:59:32.077Z,2.04
2023-02-28T06:00:34.408Z,1.88
2023-02-28T06:01:37.782Z,1.94
2023-02-28T06:02:41.101Z,1.97
2023-02-28T06:03:43.026Z,2.07
2023-02-28T06:04:45.402Z,1.96
2023-02-28T06:05:48.398Z,1.86
2023-02-28T06:06:51.303Z,1.76
2023-02-28T06:07:53.193Z,1.88
2023-02-28T06:08:55.361Z,1.99
2023-02-28T06:09:57.230Z,1.91
2023-02-28T06:10:59.109Z,1.95
2023-02-28T06:12:04.728Z,2.07
2023-02-28T06:13:06.831Z,2.13
2023-02-28T06:14:13.674Z,1.97
2023-02-28T06:15:17.410Z,2.07
2023-02-28T06:16:19.305Z,2.04
2023-02-28T06:17:21.625Z,1.94
2023-02-28T06:18:23.473Z,1.98
2023-02-28T06:19:29.636Z,1.85
2023-02-28T06:20:31.711Z,1.78
2023-02-28T06:21:33.699Z,2.05
2023-02-28T06:22:38.721Z,2.12
2023-02-28T06:23:40.638Z,2.10
2023-02-28T06:24:42.522Z,2.25
2023-02-28T06:25:46.724Z,2.31
2023-02-28T06:26:48.966Z,2.24
2023-02-28T06:27:51.246Z,2.29
2023-02-28T06:28:53.150Z,2.32
2023-02-28T06:29:56.878Z,2.39
2023-02-28T06:30:58.885Z,2.44
2023-02-28T06:32:01.179Z,2.34
2023-02-28T06:33:03.440Z,2.38
2023-02-28T06:34:06.326Z,2.44
2023-02-28T06:35:08.681Z,2.25
2023-02-28T06:36:12.197Z,2.33
2023-02-28T06:37:14.226Z,2.20
2023-02-28T06:38:16.502Z,2.27
2023-02-28T06:39:18.524Z,2.31
2023-02-28T06:40:20.400Z,2.34
2023-02-28T06:41:27.651Z,2.44
2023-02-28T06:42:31.777Z,2.50
2023-02-28T06:43:37.742Z,3.05
2023-02-28T06:44:39.939Z,2.74
2023-02-28T06:45:45.253Z,2.68
2023-02-28T06:46:47.644Z,2.42
2023-02-28T06:47:53.086Z,2.29
2023-02-28T06:48:55.576Z,2.49
2023-02-28T06:49:57.464Z,2.64
2023-02-28T06:51:15.133Z,2.54
2023-02-28T06:52:17.260Z,2.39
2023-02-28T06:53:19.263Z,2.52
2023-02-28T06:54:21.471Z,2.49
2023-02-28T06:55:23.384Z,2.52
2023-02-28T06:56:25.320Z,2.56
2023-02-28T06:57:31.882Z,2.47
2023-02-28T06:58:34.303Z,2.75
2023-02-28T06:59:37.501Z,2.69
2023-02-28T07:00:39.366Z,2.70
2023-02-28T07:01:41.482Z,2.69
2023-02-28T07:02:43.340Z,2.69
2023-02-28T07:03:45.337Z,2.65
2023-02-28T07:04:47.785Z,2.86
2023-02-28T07:05:49.864Z,2.89
2023-02-28T07:06:51.718Z,2.89
2023-02-28T07:07:53.881Z,2.97
2023-02-28T07:08:56.156Z,2.96
2023-02-28T07:09:58.319Z,2.94
2023-02-28T07:11:00.312Z,2.77
2023-02-28T07:12:02.225Z,2.92
2023-02-28T07:13:05.389Z,2.96
2023-02-28T07:14:07.622Z,2.99
2023-02-28T07:15:10.915Z,3.04
2023-02-28T07:16:12.922Z,3.06
2023-02-28T07:17:14.936Z,3.05
2023-02-28T07:18:16.807Z,3.08
2023-02-28T07:19:18.724Z,3.17
2023-02-28T07:20:20.955Z,3.21
2023-02-28T07:21:24.349Z,3.11
2023-02-28T07:22:26.279Z,3.13
2023-02-28T07:23:28.130Z,3.03
2023-02-28T07:24:30.392Z,3.10
2023-02-28T07:25:32.536Z,3.16
2023-02-28T07:26:35.263Z,4.20
2023-02-28T07:27:37.150Z,4.57
2023-02-28T07:28:39.313Z,4.18
2023-02-28T07:29:41.178Z,4.10
2023-02-28T07:30:43.753Z,4.84
2023-02-28T07:31:47.592Z,5.73
2023-02-28T07:32:49.544Z,5.57
2023-02-28T07:33:51.515Z,5.66
2023-02-28T07:34:53.655Z,5.20
2023-02-28T07:36:02.314Z,5.07
2023-02-28T07:37:06.065Z,5.07
2023-02-28T07:38:11.265Z,4.83
2023-02-28T07:39:13.144Z,4.61
2023-02-28T07:40:15.519Z,4.34
2023-02-28T07:41:19.237Z,4.20
2023-02-28T07:42:22.401Z,4.23
2023-02-28T07:43:26.399Z,4.35
2023-02-28T07:44:28.517Z,4.80
2023-02-28T07:45:31.088Z,4.94
2023-02-28T07:46:36.830Z,5.13
2023-02-28T07:47:40.020Z,4.66
2023-02-28T07:48:43.007Z,4.68
2023-02-28T07:49:47.206Z,4.66
2023-02-28T07:50:58.993Z,4.52
2023-02-28T07:52:01.213Z,4.48
2023-02-28T07:53:03.152Z,4.52
2023-02-28T07:54:05.367Z,4.38
2023-02-28T07:55:08.635Z,4.37
2023-02-28T07:56:11.709Z,4.49
2023-02-28T07:57:13.862Z,4.55
2023-02-28T07:58:15.944Z,6.06
2023-02-28T07:59:17.803Z,7.04
2023-02-28T08:00:19.936Z,6.56
2023-02-28T08:01:22.830Z,6.09
2023-02-28T08:02:24.778Z,6.58
2023-02-28T08:03:26.625Z,7.40
2023-02-28T08:04:28.541Z,7.83
2023-02-28T08:05:31.933Z,6.84
2023-02-28T08:06:34.335Z,6.36
2023-02-28T08:07:36.255Z,6.03
2023-02-28T08:08:38.139Z,5.94
2023-02-28T08:09:43.690Z,5.85
2023-02-28T08:10:45.578Z,5.68
2023-02-28T08:11:47.734Z,5.67
2023-02-28T08:12:49.583Z,5.37
2023-02-28T08:13:51.872Z,5.37
2023-02-28T08:14:53.739Z,5.32
2023-02-28T08:15:56.570Z,5.41
2023-02-28T08:16:58.772Z,5.49
2023-02-28T08:18:00.679Z,5.63
2023-02-28T08:19:02.639Z,5.32
2023-02-28T08:20:05.366Z,5.35
2023-02-28T08:21:11.432Z,5.30
2023-02-28T08:22:13.851Z,5.22
2023-02-28T08:23:16.278Z,4.96
2023-02-28T08:24:18.249Z,4.94
2023-02-28T08:25:20.593Z,4.88
2023-02-28T08:26:22.598Z,4.75
2023-02-28T08:27:24.868Z,4.93
2023-02-28T08:28:27.553Z,5.08
2023-02-28T08:29:31.186Z,5.30
2023-02-28T08:30:33.022Z,5.45
2023-02-28T08:31:36.572Z,5.42
2023-02-28T08:32:39.115Z,5.58
2023-02-28T08:33:42.456Z,5.52
2023-02-28T08:34:45.792Z,5.53
2023-02-28T08:35:48.866Z,5.62
2023-02-28T08:36:50.900Z,5.55
2023-02-28T08:37:53.103Z,5.45
2023-02-28T08:38:54.963Z,5.52
2023-02-28T08:39:56.962Z,5.77
2023-02-28T08:41:01.669Z,5.73
2023-02-28T08:42:07.721Z,5.83
2023-02-28T08:43:10.272Z,5.81
2023-02-28T08:44:12.193Z,5.90
2023-02-28T08:45:15.745Z,5.95
2023-02-28T08:46:17.664Z,6.04
2023-02-28T08:47:20.466Z,5.94
2023-02-28T08:48:22.666Z,6.01
2023-02-28T08:49:24.584Z,6.14
2023-02-28T08:50:26.446Z,6.20
2023-02-28T08:51:30.233Z,6.37
2023-02-28T08:52:32.289Z,6.31
2023-02-28T08:53:34.565Z,6.38
2023-02-28T08:54:36.999Z,6.53
2023-02-28T08:55:39.071Z,6.43
2023-02-28T08:56:41.002Z,6.52
2023-02-28T08:57:42.892Z,6.50
2023-02-28T08:58:45.708Z,6.40
2023-02-28T08:59:47.631Z,6.79
2023-02-28T09:00:49.492Z,7.05
2023-02-28T09:01:51.448Z,7.28
2023-02-28T09:02:53.407Z,7.33
2023-02-28T09:05:04.126Z,7.38
2023-02-28T09:06:06.280Z,7.63
2023-02-28T09:07:08.660Z,7.57
2023-02-28T09:08:10.523Z,7.52
2023-02-28T09:09:12.771Z,7.19
2023-02-28T09:10:14.663Z,7.26
2023-02-28T09:11:17.095Z,7.27
2023-02-28T09:12:18.965Z,7.08
2023-02-28T09:13:21.430Z,6.85
2023-02-28T09:14:23.639Z,6.83
2023-02-28T09:15:25.528Z,6.68
2023-02-28T09:16:27.755Z,6.95
2023-02-28T09:17:30.930Z,7.02
2023-02-28T09:18:35.652Z,7.07
2023-02-28T09:19:38.051Z,7.12
2023-02-28T09:20:40.944Z,6.84
2023-02-28T09:21:42.843Z,6.84
2023-02-28T09:22:44.730Z,6.68
2023-02-28T09:23:48.864Z,6.51
2023-02-28T09:24:51.001Z,6.54
2023-02-28T09:25:55.354Z,6.48
2023-02-28T09:27:05.050Z,6.20
2023-02-28T09:28:07.465Z,6.08
2023-02-28T09:29:09.936Z,6.23
2023-02-28T09:30:12.949Z,6.22
2023-02-28T09:31:17.748Z,6.21
2023-02-28T09:32:20.166Z,6.28
2023-02-28T09:33:22.868Z,6.34
2023-02-28T09:34:24.761Z,6.54
2023-02-28T09:35:27.763Z,6.59
2023-02-28T09:36:41.771Z,6.63
2023-02-28T09:37:46.420Z,6.77
2023-02-28T09:38:49.723Z,6.46
2023-02-28T09:39:51.755Z,6.57
2023-02-28T09:40:59.460Z,6.61
2023-02-28T09:42:03.009Z,6.72
2023-02-28T09:43:06.732Z,6.85
2023-02-28T09:44:14.969Z,7.02
2023-02-28T09:45:33.652Z,7.09
2023-02-28T09:46:41.705Z,7.08
2023-02-28T09:47:49.342Z,7.22
2023-02-28T09:48:52.379Z,7.06
2023-02-28T09:49:54.410Z,7.04
2023-02-28T09:51:05.006Z,6.84
2023-02-28T09:52:22.495Z,6.75
2023-02-28T09:53:28.767Z,6.88
2023-02-28T09:54:33.815Z,6.50
2023-02-28T09:55:58.189Z,6.41
2023-02-28T09:57:07.838Z,6.45
2023-02-28T09:58:23.419Z,6.39
2023-02-28T09:59:42.973Z,6.36
2023-02-28T10:00:46.247Z,6.49
2023-02-28T10:02:00.443Z,6.63
2023-02-28T10:03:05.093Z,6.71
2023-02-28T10:04:37.456Z,6.79
2023-02-28T10:05:45.664Z,6.99
2023-02-28T10:06:51.285Z,7.04
2023-02-28T10:08:09.373Z,6.99
2023-02-28T10:09:23.595Z,7.09
2023-02-28T10:10:37.316Z,7.10
2023-02-28T10:11:40.935Z,6.97
2023-02-28T10:12:46.622Z,7.04
2023-02-28T10:14:22.894Z,7.18
2023-02-28T10:15:28.967Z,7.03
2023-02-28T10:16:33.689Z,7.02
2023-02-28T10:17:55.047Z,7.22
2023-02-28T10:19:27.236Z,7.05
2023-02-28T10:20:32.394Z,7.36
2023-02-28T10:21:42.138Z,6.99
2023-02-28T10:23:02.056Z,6.93
2023-02-28T10:24:30.053Z,6.89
2023-02-28T10:25:32.040Z,6.88
2023-02-28T10:26:34.332Z,6.73
2023-02-28T10:27:36.274Z,6.42
2023-02-28T10:28:38.159Z,6.37
2023-02-28T10:29:43.478Z,6.42
2023-02-28T10:30:49.016Z,6.45
2023-02-28T10:31:50.969Z,6.47
2023-02-28T10:32:54.713Z,6.44
2023-02-28T10:33:56.678Z,6.70
2023-02-28T10:35:20.724Z,6.55
2023-02-28T10:36:23.161Z,6.49
2023-02-28T10:37:25.058Z,6.55
2023-02-28T10:38:28.594Z,6.70
2023-02-28T10:39:48.792Z,6.86
2023-02-28T10:40:52.119Z,6.99
2023-02-28T10:41:53.955Z,6.93
2023-02-28T10:42:59.359Z,7.15
2023-02-28T10:44:21.659Z,7.14
2023-02-28T10:45:24.441Z,7.01
2023-02-28T10:46:35.289Z,6.88
2023-02-28T10:47:50.103Z,7.01
2023-02-28T10:49:13.051Z,7.01
2023-02-28T10:50:36.840Z,6.69
2023-02-28T10:51:41.246Z,7.03
2023-02-28T10:52:43.402Z,7.16
2023-02-28T10:54:02.292Z,7.19
2023-02-28T10:55:23.876Z,7.30
2023-02-28T10:56:26.189Z,7.58
2023-02-28T10:57:31.812Z,7.32
2023-02-28T10:58:45.838Z,7.10
2023-02-28T10:59:52.812Z,6.99
2023-02-28T11:00:55.145Z,6.85
2023-02-28T11:01:57.433Z,7.13
2023-02-28T11:02:59.659Z,7.20
2023-02-28T11:04:02.239Z,7.25
2023-02-28T11:05:33.262Z,7.34
2023-02-28T11:06:35.802Z,7.27
2023-02-28T11:07:53.027Z,7.50
2023-02-28T11:08:59.267Z,7.40
2023-02-28T11:10:01.209Z,7.24
2023-02-28T11:11:07.059Z,7.14
2023-02-28T11:12:24.474Z,7.22
2023-02-28T11:13:32.930Z,7.27
2023-02-28T11:14:47.937Z,7.00
2023-02-28T11:16:00.278Z,7.11
2023-02-28T11:17:20.444Z,7.25
2023-02-28T11:18:31.334Z,7.34
2023-02-28T11:19:41.159Z,7.44
2023-02-28T11:20:48.476Z,7.57
2023-02-28T11:21:58.137Z,7.75
2023-02-28T11:23:02.747Z,7.97
2023-02-28T11:24:42.606Z,8.11
2023-02-28T11:25:51.185Z,8.11
2023-02-28T11:26:53.657Z,8.03
2023-02-28T11:27:58.795Z,7.96
2023-02-28T11:29:12.098Z,7.86
2023-02-28T11:30:37.618Z,8.12
2023-02-28T11:31:39.843Z,8.16
2023-02-28T11:32:49.640Z,8.06
2023-02-28T11:33:54.542Z,8.18
2023-02-28T11:35:23.377Z,8.30
2023-02-28T11:36:30.277Z,8.18
2023-02-28T11:37:34.125Z,8.24
2023-02-28T11:38:37.719Z,8.20
2023-02-28T11:39:39.742Z,8.42
2023-02-28T11:40:56.845Z,8.27
2023-02-28T11:42:03.078Z,8.19
2023-02-28T11:43:27.172Z,8.08
2023-02-28T11:44:37.794Z,7.79
2023-02-28T11:45:43.857Z,7.47
2023-02-28T11:46:52.467Z,7.46
2023-02-28T11:48:09.616Z,7.56
2023-02-28T11:49:18.943Z,7.54
2023-02-28T11:50:41.957Z,7.45
2023-02-28T11:52:09.613Z,7.31
2023-02-28T11:53:20.611Z,7.45
2023-02-28T11:54:51.714Z,7.59
2023-02-28T11:56:01.609Z,7.59
2023-02-28T11:57:25.146Z,7.77
2023-02-28T11:58:43.563Z,7.83
2023-02-28T12:00:20.418Z,7.81
2023-02-28T12:01:40.137Z,7.66
2023-02-28T12:03:00.664Z,7.79
2023-02-28T12:04:23.930Z,7.66
2023-02-28T12:05:44.965Z,7.50
2023-02-28T12:07:27.296Z,7.55
2023-02-28T12:08:55.505Z,7.80
2023-02-28T12:10:22.834Z,7.90
2023-02-28T12:11:48.971Z,7.72
2023-02-28T12:13:21.474Z,7.85
2023-02-28T12:15:07.619Z,8.14
2023-02-28T12:16:18.174Z,7.80
2023-02-28T12:17:37.974Z,8.07
2023-02-28T12:19:11.857Z,7.90
2023-02-28T12:20:48.993Z,7.97
2023-02-28T12:22:12.426Z,8.22
2023-02-28T12:23:50.790Z,8.27
2023-02-28T12:25:08.158Z,8.64
2023-02-28T12:26:40.949Z,8.77
2023-02-28T12:27:44.130Z,8.85
2023-02-28T12:28:54.014Z,8.84
2023-02-28T12:30:14.634Z,8.70
2023-02-28T12:31:31.028Z,8.67
2023-02-28T12:32:47.077Z,8.82
2023-02-28T12:33:53.570Z,8.69
2023-02-28T12:35:05.724Z,9.00
2023-02-28T12:36:16.398Z,9.31
2023-02-28T12:37:24.107Z,9.38
2023-02-28T12:38:30.557Z,9.09
2023-02-28T12:39:49.878Z,9.16
2023-02-28T12:41:04.097Z,9.13
2023-02-28T12:42:20.379Z,9.02
2023-02-28T12:43:26.454Z,9.35
2023-02-28T12:44:43.981Z,9.35
2023-02-28T12:45:58.400Z,9.20
2023-02-28T12:47:05.831Z,9.44
2023-02-28T12:48:14.849Z,9.60
2023-02-28T12:49:31.398Z,9.66
2023-02-28T12:50:35.382Z,9.54
2023-02-28T12:51:38.432Z,9.60
2023-02-28T12:52:42.966Z,9.94
2023-02-28T12:53:48.040Z,9.90
2023-02-28T12:55:34.912Z,9.59
2023-02-28T12:57:01.388Z,9.57
2023-02-28T12:58:08.881Z,9.58
2023-02-28T12:59:29.225Z,9.48
2023-02-28T13:00:37.361Z,9.40
2023-02-28T13:01:57.149Z,9.40
2023-02-28T13:03:02.022Z,9.62
2023-02-28T13:04:33.410Z,9.60
2023-02-28T13:06:09.705Z,9.70
2023-02-28T13:07:20.300Z,9.56
2023-02-28T13:08:59.755Z,9.42
2023-02-28T13:10:05.286Z,9.41
2023-02-28T13:11:20.962Z,9.50
2023-02-28T13:12:24.032Z,9.45
2023-02-28T13:13:30.871Z,9.62
2023-02-28T13:14:36.438Z,9.55
2023-02-28T13:15:41.642Z,9.69
2023-02-28T13:17:08.631Z,9.45
2023-02-28T13:18:40.643Z,9.52
2023-02-28T13:19:46.815Z,9.64
2023-02-28T13:20:50.664Z,9.70
2023-02-28T13:21:54.053Z,9.53
2023-02-28T13:22:58.150Z,9.30
2023-02-28T13:24:04.730Z,9.42
2023-02-28T13:25:39.033Z,9.27
2023-02-28T13:26:40.796Z,9.26
2023-02-28T13:27:43.754Z,9.49
2023-02-28T13:29:19.010Z,9.45
2023-02-28T13:30:52.915Z,9.31
2023-02-28T13:32:06.890Z,9.19
2023-02-28T13:33:50.636Z,9.15
2023-02-28T13:34:52.512Z,9.34
2023-02-28T13:36:16.381Z,9.25
2023-02-28T13:37:20.952Z,9.32
2023-02-28T13:38:34.090Z,9.21
2023-02-28T13:39:36.453Z,8.97
2023-02-28T13:40:39.241Z,9.13
2023-02-28T13:41:46.389Z,9.00
2023-02-28T13:42:51.434Z,8.99
2023-02-28T13:44:01.360Z,9.06
2023-02-28T13:45:03.410Z,9.06
2023-02-28T13:46:13.430Z,9.30
2023-02-28T13:47:25.707Z,9.20
2023-02-28T13:48:30.441Z,9.18
2023-02-28T13:49:34.869Z,9.01
2023-02-28T13:50:39.014Z,8.96
2023-02-28T13:51:48.018Z,8.93
2023-02-28T13:53:02.125Z,8.94
2023-02-28T13:54:17.720Z,8.81
2023-02-28T13:55:56.794Z,8.72
2023-02-28T13:57:24.596Z,8.49
2023-02-28T13:58:40.223Z,8.43
2023-02-28T14:00:11.400Z,8.28
2023-02-28T14:01:17.632Z,8.10
2023-02-28T14:02:53.793Z,7.99
2023-02-28T14:04:10.838Z,7.92
2023-02-28T14:06:29.201Z,7.98
2023-02-28T14:07:40.747Z,7.96
2023-02-28T14:09:14.736Z,7.84
2023-02-28T14:10:26.204Z,8.03
2023-02-28T14:11:34.200Z,7.79
2023-02-28T14:12:58.758Z,7.42
2023-02-28T14:14:01.881Z,7.46
2023-02-28T14:15:06.532Z,7.48
2023-02-28T14:16:10.012Z,7.51
2023-02-28T14:17:18.152Z,7.66
2023-02-28T14:18:27.980Z,7.68
2023-02-28T14:19:32.796Z,7.53
2023-02-28T14:20:35.384Z,7.60
2023-02-28T14:21:42.851Z,7.49
2023-02-28T14:22:59.936Z,7.43
2023-02-28T14:24:29.379Z,7.57
2023-02-28T14:26:10.302Z,7.52
2023-02-28T14:27:38.722Z,7.40
2023-02-28T14:28:57.590Z,7.38
2023-02-28T14:30:16.461Z,7.20
2023-02-28T14:31:58.995Z,7.13
2023-02-28T14:33:27.482Z,6.91
2023-02-28T14:35:03.894Z,6.84
2023-02-28T14:36:14.604Z,6.92
2023-02-28T14:37:32.791Z,6.80
2023-02-28T14:38:44.075Z,6.74
2023-02-28T14:39:46.978Z,6.68
2023-02-28T14:40:52.193Z,6.76
2023-02-28T14:41:54.410Z,6.60
2023-02-28T14:43:02.189Z,6.60
2023-02-28T14:44:18.770Z,6.62
2023-02-28T14:45:22.242Z,6.65
2023-02-28T14:46:37.355Z,6.72
2023-02-28T14:47:39.641Z,6.81
2023-02-28T14:48:42.154Z,6.68
2023-02-28T14:49:47.832Z,6.66
2023-02-28T14:50:57.381Z,6.61
2023-02-28T14:52:04.939Z,6.46
2023-02-28T14:53:16.472Z,6.51
2023-02-28T14:54:25.063Z,6.52
2023-02-28T14:55:33.469Z,6.66
2023-02-28T14:56:38.326Z,6.48
2023-02-28T14:57:52.666Z,6.41
2023-02-28T14:58:57.348Z,6.40
2023-02-28T15:00:14.782Z,6.44
2023-02-28T15:01:22.180Z,6.51
2023-02-28T15:02:27.208Z,6.55
2023-02-28T15:03:35.056Z,6.69
2023-02-28T15:04:37.311Z,6.49
2023-02-28T15:05:39.256Z,6.41
2023-02-28T15:06:42.503Z,6.40
2023-02-28T15:07:48.888Z,6.25
2023-02-28T15:09:10.960Z,6.27